Time;durP1;ratioP1;P1;durP2;ratioP2;P2;SDS_P1;SDS_P2;PMS_P1;PMS_P2;Temp;Humidity;BMP_temperature;BMP_pressure;BME280_temperature;BME280_humidity;BME280_pressure;Samples;Min_cycle;Max_cycle;Signal;HPM_P1;HPM_P2
2022/09/09 00:00:16;;;;;;;1999.90;999.90;;;17.20;99.90;;;;;;6655883;89;20206;-76
2022/09/09 00:10:33;;;;;;;1999.90;999.90;;;17.30;99.90;;;;;;6665066;89;20180;-75
2022/09/09 00:20:46;;;;;;;1999.90;999.90;;;17.10;99.90;;;;;;6660425;89;20271;-75
2022/09/09 00:30:49;;;;;;;1999.90;999.90;;;16.80;99.90;;;;;;6660586;88;20211;-75
2022/09/09 00:41:01;;;;;;;1999.90;999.90;;;16.50;99.90;;;;;;6659228;88;20979;-75
2022/09/09 00:51:15;;;;;;;1999.90;999.90;;;16.40;99.90;;;;;;6664472;77;20205;-77
2022/09/09 01:01:16;;;;;;;1999.90;999.90;;;16.40;99.90;;;;;;6667928;88;20292;-75
2022/09/09 01:11:26;;;;;;;1999.90;999.90;;;16.40;99.90;;;;;;6671334;88;20687;-76
2022/09/09 01:21:42;;;;;;;1999.90;999.90;;;16.50;99.90;;;;;;6660218;88;20403;-76
2022/09/09 01:31:56;;;;;;;1999.90;999.90;;;16.50;99.90;;;;;;6671389;88;20283;-76
2022/09/09 01:41:57;;;;;;;1999.90;999.90;;;16.50;99.90;;;;;;6670743;88;20339;-77
2022/09/09 01:51:58;;;;;;;1999.90;999.90;;;16.50;99.90;;;;;;6691581;88;20184;-77
2022/09/09 02:02:36;;;;;;;1999.90;999.90;;;16.70;99.90;;;;;;6743712;88;20212;-76
2022/09/09 02:12:41;;;;;;;1999.90;999.90;;;16.80;99.90;;;;;;6743393;88;20313;-77
2022/09/09 02:22:43;;;;;;;;;;;16.90;99.90;;;;;;6741431;88;20324;-77
2022/09/09 02:32:46;;;;;;;1999.90;999.90;;;16.90;99.90;;;;;;6739448;88;20170;-77
2022/09/09 02:42:49;;;;;;;1999.90;999.90;;;17.00;99.90;;;;;;6738093;88;20748;-77
2022/09/09 02:53:07;;;;;;;1999.90;999.90;;;17.00;99.90;;;;;;6708812;88;20218;-76
2022/09/09 03:03:11;;;;;;;1999.90;999.90;;;17.10;99.90;;;;;;6675573;88;20983;-77
2022/09/09 03:13:12;;;;;;;1999.90;999.90;;;17.10;99.90;;;;;;6685177;88;20204;-77
2022/09/09 03:23:13;;;;;;;1999.90;999.90;;;17.00;99.90;;;;;;6675348;88;20192;-78
2022/09/09 03:33:14;;;;;;;1999.90;999.90;;;16.80;99.90;;;;;;6674814;88;20218;-77
2022/09/09 03:43:16;;;;;;;1999.90;999.90;;;16.80;99.90;;;;;;6664826;88;20285;-77
2022/09/09 03:53:19;;;;;;;1999.90;999.90;;;16.90;99.90;;;;;;6683170;88;20228;-77
2022/09/09 04:03:19;;;;;;;1999.90;999.90;;;16.80;99.90;;;;;;6672349;88;20173;-76
2022/09/09 04:13:20;;;;;;;1999.90;999.90;;;16.80;99.90;;;;;;6685369;87;20320;-77
2022/09/09 04:23:20;;;;;;;1999.90;999.90;;;16.80;99.90;;;;;;6685985;88;20273;-78
2022/09/09 04:33:21;;;;;;;1999.90;999.90;;;16.70;99.90;;;;;;6668422;88;20697;-77
2022/09/09 04:43:22;;;;;;;1999.90;999.90;;;16.70;99.90;;;;;;6668946;87;20270;-77
2022/09/09 04:53:25;;;;;;;1999.90;999.90;;;16.70;99.90;;;;;;6665920;88;20234;-77
2022/09/09 05:03:26;;;;;;;1999.90;999.90;;;16.60;99.90;;;;;;6670446;88;20203;-77
2022/09/09 05:13:27;;;;;;;1999.90;999.90;;;16.50;99.90;;;;;;6675411;88;20207;-78
2022/09/09 05:23:28;;;;;;;1999.90;999.90;;;16.50;99.90;;;;;;6677905;88;20192;-76
2022/09/09 05:33:28;;;;;;;1999.90;999.90;;;16.60;99.90;;;;;;6665442;88;20212;-77
2022/09/09 05:43:29;;;;;;;1999.90;999.90;;;16.70;99.90;;;;;;6676739;88;20719;-77
2022/09/09 05:53:37;;;;;;;1999.90;999.90;;;16.60;99.90;;;;;;6681026;88;20191;-77
2022/09/09 06:03:39;;;;;;;1999.90;999.90;;;16.90;99.90;;;;;;6667304;88;20180;-78
2022/09/09 06:13:40;;;;;;;1999.90;999.90;;;16.90;99.90;;;;;;6667272;89;20203;-78
2022/09/09 06:23:40;;;;;;;1999.90;999.90;;;17.10;99.90;;;;;;6667997;88;20191;-77
2022/09/09 06:33:43;;;;;;;1999.90;999.90;;;17.10;99.90;;;;;;6667985;88;20222;-79
2022/09/09 06:43:43;;;;;;;1999.90;999.90;;;17.50;99.90;;;;;;6670419;88;20667;-79
2022/09/09 06:53:46;;;;;;;1999.90;999.90;;;18.00;99.90;;;;;;6698726;77;20199;-76
2022/09/09 07:03:49;;;;;;;1999.90;999.90;;;17.90;99.90;;;;;;6684194;87;20348;-76
2022/09/09 07:13:50;;;;;;;1999.90;999.90;;;18.50;99.90;;;;;;6663483;88;20179;-77
2022/09/09 07:23:51;;;;;;;1999.90;999.90;;;18.80;99.90;;;;;;6664904;88;20271;-77
2022/09/09 07:33:51;;;;;;;1999.90;999.90;;;19.20;99.90;;;;;;6662537;88;20254;-76
2022/09/09 07:43:53;;;;;;;1999.90;999.90;;;19.20;99.90;;;;;;6665544;88;20655;-77
2022/09/09 07:53:57;;;;;;;1999.90;999.90;;;19.00;99.90;;;;;;6660569;88;20814;-77
2022/09/09 08:04:04;;;;;;;1999.90;999.90;;;19.30;99.90;;;;;;6658406;89;20226;-76
2022/09/09 08:14:05;;;;;;;1999.90;999.90;;;19.10;99.90;;;;;;6658110;88;20589;-76
2022/09/09 08:24:08;;;;;;;1999.90;999.90;;;19.10;99.90;;;;;;6662451;88;20262;-76
2022/09/09 08:34:09;;;;;;;1999.90;999.90;;;19.20;99.90;;;;;;6661295;88;20216;-76
2022/09/09 08:44:55;;;;;;;1999.90;999.90;;;19.40;99.90;;;;;;6656766;89;20184;-77
2022/09/09 08:55:03;;;;;;;1999.90;999.90;;;20.10;99.90;;;;;;6671445;88;20209;-76
2022/09/09 09:05:27;;;;;;;1999.90;999.90;;;20.20;99.90;;;;;;6658971;88;20358;-76
2022/09/09 09:15:38;;;;;;;1999.90;999.90;;;20.20;99.90;;;;;;6654772;89;20703;-78
2022/09/09 09:25:42;;;;;;;1999.90;999.90;;;20.90;99.90;;;;;;6664286;89;20208;-78
2022/09/09 09:35:43;;;;;;;;;;;20.60;99.90;;;;;;6669343;88;20236;-76
2022/09/09 09:45:48;;;;;;;1999.90;999.90;;;20.40;99.90;;;;;;6662716;88;20110;-76
2022/09/09 09:55:54;;;;;;;1999.90;999.90;;;20.10;99.90;;;;;;6666818;89;20184;-77
2022/09/09 10:05:58;;;;;;;1999.90;999.90;;;20.20;99.90;;;;;;6665168;88;20197;-78
2022/09/09 10:16:22;;;;;;;1999.90;999.90;;;20.70;99.90;;;;;;6670294;89;20328;-75
2022/09/09 10:26:52;;;;;;;1999.90;999.90;;;21.60;99.90;;;;;;6660063;89;20185;-77
2022/09/09 10:36:53;;;;;;;1999.90;999.90;;;21.30;99.90;;;;;;6662246;88;20411;-76
2022/09/09 10:46:59;;;;;;;1999.90;999.90;;;21.00;99.90;;;;;;6667563;89;20189;-76
2022/09/09 10:57:24;;;;;;;1999.90;999.90;;;20.60;99.90;;;;;;6667376;89;20254;-77
2022/09/09 11:07:38;;;;;;;1999.90;999.90;;;20.60;99.90;;;;;;6666990;89;20172;-77
2022/09/09 11:17:49;;;;;;;1999.90;999.90;;;20.90;99.90;;;;;;6662872;88;20176;-76
2022/09/09 11:28:16;;;;;;;1999.90;999.90;;;21.30;99.90;;;;;;6658479;88;20208;-76
2022/09/09 11:38:47;;;;;;;1999.90;999.90;;;22.10;99.90;;;;;;6675491;89;20254;-76
2022/09/09 11:49:02;;;;;;;1999.90;999.90;;;23.20;99.90;;;;;;6659123;89;20191;-75
2022/09/09 11:59:05;;;;;;;1999.90;999.90;;;23.90;98.60;;;;;;6663096;88;20207;-77
2022/09/09 12:09:26;;;;;;;1999.90;999.90;;;22.60;99.80;;;;;;6662201;89;20249;-76
2022/09/09 12:19:26;;;;;;;1999.90;999.90;;;22.80;99.40;;;;;;6657866;89;20196;-76
2022/09/09 12:29:40;;;;;;;1999.90;999.90;;;22.30;99.70;;;;;;6670862;88;20203;-76
2022/09/09 12:40:01;;;;;;;1999.90;999.90;;;22.30;99.60;;;;;;6682609;89;20680;-77
2022/09/09 12:50:02;;;;;;;1999.90;999.90;;;22.30;99.90;;;;;;6670992;88;20337;-76
2022/09/09 13:00:22;;;;;;;1999.90;999.90;;;22.10;99.90;;;;;;6661407;89;20289;-78
2022/09/09 13:10:28;;;;;;;1999.90;999.90;;;21.50;99.90;;;;;;6663772;88;20256;-77
2022/09/09 13:20:30;;;;;;;1999.90;999.90;;;21.70;99.90;;;;;;6668309;89;20178;-77
2022/09/09 13:30:37;;;;;;;1999.90;999.90;;;21.60;99.90;;;;;;6664281;89;20188;-76
2022/09/09 13:40:38;;;;;;;1999.90;999.90;;;21.10;99.90;;;;;;6665620;88;20198;-77
2022/09/09 13:50:41;;;;;;;1999.90;999.90;;;21.40;99.90;;;;;;6672116;88;20244;-77
2022/09/09 14:00:43;;;;;;;1999.90;999.90;;;21.80;99.90;;;;;;6676610;89;20193;-78
2022/09/09 14:10:43;;;;;;;1999.90;999.90;;;21.80;99.90;;;;;;6674684;88;20244;-77
2022/09/09 14:20:44;;;;;;;1999.90;999.90;;;22.10;99.90;;;;;;6673705;88;20219;-78
2022/09/09 14:30:45;;;;;;;1999.90;999.90;;;21.60;99.90;;;;;;6676452;89;20211;-79
2022/09/09 14:40:46;;;;;;;1999.90;999.90;;;22.70;99.90;;;;;;6669012;89;20195;-77
2022/09/09 14:50:47;;;;;;;1999.90;999.90;;;22.90;99.90;;;;;;6663980;89;20550;-78
2022/09/09 15:00:47;;;;;;;1999.90;999.90;;;23.10;99.90;;;;;;6667092;89;20213;-78
2022/09/09 15:10:49;;;;;;;1999.90;999.90;;;23.00;99.90;;;;;;6666321;88;20267;-77
2022/09/09 15:20:51;;;;;;;1999.90;999.90;;;22.20;99.90;;;;;;6672159;88;20184;-76
2022/09/09 15:30:53;;;;;;;1999.90;999.90;;;21.30;99.90;;;;;;6666701;89;20716;-77
2022/09/09 15:40:55;;;;;;;1999.90;999.90;;;21.30;99.90;;;;;;6664808;89;20372;-76
2022/09/09 15:51:03;;;;;;;1999.90;999.90;;;20.90;99.90;;;;;;6667898;88;20270;-78
2022/09/09 16:01:08;;;;;;;1999.90;999.90;;;19.90;99.90;;;;;;6658970;88;20226;-76
2022/09/09 16:11:14;;;;;;;1999.90;999.90;;;20.00;99.90;;;;;;6667474;88;20177;-77
2022/09/09 16:21:25;;;;;;;1999.90;999.90;;;20.20;99.90;;;;;;6681872;88;20195;-81
2022/09/09 16:31:27;;;;;;;1999.90;999.90;;;20.20;99.90;;;;;;6680411;88;20294;-78
2022/09/09 16:41:29;;;;;;;1999.90;999.90;;;20.10;99.90;;;;;;6676479;88;20758;-77
2022/09/09 16:51:33;;;;;;;1999.90;999.90;;;19.90;99.90;;;;;;6662445;88;20219;-77
2022/09/09 17:01:40;;;;;;;1999.90;999.90;;;19.40;99.90;;;;;;6675711;88;20326;-76
2022/09/09 17:11:41;;;;;;;1999.90;999.90;;;19.20;99.90;;;;;;6660925;88;20199;-76
2022/09/09 17:21:42;;;;;;;1999.90;999.90;;;19.00;99.90;;;;;;6671528;88;20183;-81
2022/09/09 17:31:43;;;;;;;1999.90;999.90;;;19.00;99.90;;;;;;6671264;88;20223;-78
2022/09/09 17:41:43;;;;;;;1999.90;999.90;;;18.40;99.90;;;;;;6668530;88;20244;-78
2022/09/09 17:51:45;;;;;;;1999.90;999.90;;;18.20;99.90;;;;;;6669045;88;20695;-77
2022/09/09 18:01:48;;;;;;;1999.90;999.90;;;18.10;99.90;;;;;;6679694;88;21063;-78
2022/09/09 18:11:53;;;;;;;1999.90;999.90;;;18.10;99.90;;;;;;6669592;88;20203;-77
2022/09/09 18:21:53;;;;;;;;;;;18.00;99.90;;;;;;6675358;88;20228;-78
2022/09/09 18:31:55;;;;;;;1999.90;999.90;;;17.90;99.90;;;;;;6680883;88;20478;-77
2022/09/09 18:41:59;;;;;;;1999.90;999.90;;;17.90;99.90;;;;;;6668853;88;21133;-78
2022/09/09 18:52:01;;;;;;;1999.90;999.90;;;17.70;99.90;;;;;;6673531;88;20209;-78
2022/09/09 19:02:01;;;;;;;1999.90;999.90;;;17.50;99.90;;;;;;6665278;88;20182;-78
2022/09/09 19:12:22;;;;;;;1999.90;999.90;;;17.40;99.90;;;;;;6719261;77;20192;-79
2022/09/09 19:22:23;;;;;;;1999.90;999.90;;;17.20;99.90;;;;;;6764065;88;20202;-81
2022/09/09 19:32:24;;;;;;;1999.90;999.90;;;17.20;99.90;;;;;;6759914;88;20708;-81
2022/09/09 19:42:24;;;;;;;1999.90;999.90;;;17.00;99.90;;;;;;6762955;88;20726;-81
2022/09/09 19:52:25;;;;;;;1999.90;999.90;;;17.10;99.90;;;;;;6763497;88;20294;-80
2022/09/09 20:02:27;;;;;;;1999.90;999.90;;;17.00;99.90;;;;;;6760165;88;20541;-81
2022/09/09 20:12:27;;;;;;;1999.90;999.90;;;16.90;99.90;;;;;;6763682;88;20729;-81
2022/09/09 20:22:28;;;;;;;1999.90;999.90;;;16.70;99.90;;;;;;6765685;88;20175;-81
2022/09/09 20:32:29;;;;;;;1999.90;999.90;;;16.70;99.90;;;;;;6763428;88;20225;-82
2022/09/09 20:42:29;;;;;;;1999.90;999.90;;;16.70;99.90;;;;;;6759190;88;20188;-81
2022/09/09 20:52:30;;;;;;;1999.90;999.90;;;16.60;99.90;;;;;;6761357;88;20206;-80
2022/09/09 21:02:30;;;;;;;1999.90;999.90;;;16.70;99.90;;;;;;6773558;88;20218;-80
2022/09/09 21:12:31;;;;;;;1999.90;999.90;;;16.60;99.90;;;;;;6772087;88;20245;-80
2022/09/09 21:22:31;;;;;;;1999.90;999.90;;;16.70;99.90;;;;;;6767856;88;20183;-79
2022/09/09 21:32:32;;;;;;;1999.90;999.90;;;16.70;99.90;;;;;;6770935;88;20196;-79
2022/09/09 21:42:33;;;;;;;1999.90;999.90;;;16.70;99.90;;;;;;6770695;88;20500;-80
2022/09/09 21:52:33;;;;;;;1999.90;999.90;;;16.80;99.90;;;;;;6769620;88;20735;-80
2022/09/09 22:02:35;;;;;;;1999.90;999.90;;;16.70;99.90;;;;;;6771354;88;20669;-80
2022/09/09 22:12:36;;;;;;;1999.90;999.90;;;16.50;99.90;;;;;;6754881;88;20189;-80
2022/09/09 22:22:38;;;;;;;1999.90;999.90;;;16.60;99.90;;;;;;6754215;88;20184;-80
2022/09/09 22:32:38;;;;;;;1999.90;999.90;;;16.80;99.90;;;;;;6755369;88;20225;-79
2022/09/09 22:42:40;;;;;;;1999.90;999.90;;;16.90;99.90;;;;;;6753473;88;20223;-80
2022/09/09 22:52:41;;;;;;;1999.90;999.90;;;16.80;99.90;;;;;;6750439;88;20746;-79
2022/09/09 23:02:41;;;;;;;1999.90;999.90;;;16.60;99.90;;;;;;6749462;88;20187;-79
2022/09/09 23:12:42;;;;;;;1999.90;999.90;;;16.50;99.90;;;;;;6753201;88;21096;-79
2022/09/09 23:22:43;;;;;;;1999.90;999.90;;;16.40;99.90;;;;;;6753653;88;20202;-79
2022/09/09 23:32:45;;;;;;;1999.90;999.90;;;16.30;99.90;;;;;;6750914;88;20189;-79
2022/09/09 23:42:46;;;;;;;1999.90;999.90;;;16.10;99.90;;;;;;6752857;88;20196;-80
2022/09/09 23:52:47;;;;;;;1999.90;999.90;;;16.10;99.90;;;;;;6753124;88;20680;-80
